createdAt,value
2023-05-18T00:00:18.196Z,4.13
2023-05-18T00:02:48.447Z,4.47
2023-05-18T00:05:18.114Z,4.30
2023-05-18T00:07:45.581Z,4.10
2023-05-18T00:10:12.767Z,4.77
2023-05-18T00:12:40.013Z,4.20
2023-05-18T00:15:07.720Z,4.10
2023-05-18T00:17:34.866Z,4.70
2023-05-18T00:20:01.994Z,4.63
2023-05-18T00:22:30.161Z,4.50
2023-05-18T00:24:57.191Z,4.40
2023-05-18T00:27:24.343Z,4.97
2023-05-18T00:29:52.080Z,4.97
2023-05-18T00:32:19.210Z,4.57
2023-05-18T00:34:46.288Z,4.20
2023-05-18T00:37:13.380Z,4.50
2023-05-18T00:39:40.567Z,4.50
2023-05-18T00:42:07.829Z,5.00
2023-05-18T00:44:34.924Z,5.13
2023-05-18T00:47:02.180Z,4.50
2023-05-18T00:49:29.341Z,4.33
2023-05-18T00:51:57.027Z,4.87
2023-05-18T00:54:26.396Z,4.60
2023-05-18T00:56:53.995Z,3.90
2023-05-18T00:59:22.186Z,4.57
2023-05-18T01:01:49.464Z,5.07
2023-05-18T01:04:16.518Z,4.10
2023-05-18T01:06:43.934Z,4.67
2023-05-18T01:09:13.591Z,4.90
2023-05-18T01:12:01.184Z,4.73
2023-05-18T01:14:56.356Z,4.73
2023-05-18T01:18:10.457Z,4.70
2023-05-18T01:20:47.547Z,5.03
2023-05-18T01:23:45.361Z,4.90
2023-05-18T01:26:29.986Z,4.87
2023-05-18T01:29:01.486Z,4.23
2023-05-18T01:31:29.312Z,4.87
2023-05-18T01:33:56.561Z,4.43
2023-05-18T01:36:23.739Z,4.53
2023-05-18T01:38:53.525Z,4.53
2023-05-18T01:41:23.434Z,4.60
2023-05-18T01:44:33.069Z,5.10
2023-05-18T01:47:12.182Z,4.80
2023-05-18T01:50:01.544Z,5.17
2023-05-18T01:53:06.308Z,5.30
2023-05-18T01:55:36.833Z,4.50
2023-05-18T01:58:06.844Z,5.00
2023-05-18T02:00:34.984Z,4.77
2023-05-18T02:03:02.228Z,5.10
2023-05-18T02:05:29.690Z,5.27
2023-05-18T02:07:57.407Z,4.63
2023-05-18T02:10:24.657Z,4.90
2023-05-18T02:12:53.834Z,4.60
2023-05-18T02:15:22.236Z,5.17
2023-05-18T02:17:49.947Z,4.33
2023-05-18T02:20:20.191Z,4.50
2023-05-18T02:22:47.282Z,4.87
2023-05-18T02:25:14.412Z,4.97
2023-05-18T02:27:41.795Z,5.47
2023-05-18T02:30:09.499Z,5.53
2023-05-18T02:32:39.689Z,4.87
2023-05-18T02:35:07.761Z,5.20
2023-05-18T02:37:39.662Z,4.33
2023-05-18T02:40:10.734Z,4.87
2023-05-18T02:42:37.973Z,5.13
2023-05-18T02:45:05.725Z,4.97
2023-05-18T02:47:33.394Z,4.67
2023-05-18T02:50:00.558Z,4.80
2023-05-18T02:52:29.089Z,4.37
2023-05-18T02:54:56.458Z,4.87
2023-05-18T02:57:48.204Z,5.57
2023-05-18T03:00:22.476Z,4.43
2023-05-18T03:02:50.447Z,5.07
2023-05-18T03:05:18.495Z,4.60
2023-05-18T03:07:50.942Z,4.57
2023-05-18T03:10:20.524Z,5.80
2023-05-18T03:12:48.357Z,4.33
2023-05-18T03:15:16.372Z,5.20
2023-05-18T03:17:44.047Z,4.60
2023-05-18T03:20:14.496Z,4.73
2023-05-18T03:22:42.151Z,5.43
2023-05-18T03:25:09.376Z,4.97
2023-05-18T03:27:37.999Z,4.80
2023-05-18T03:30:06.400Z,5.07
2023-05-18T03:32:34.132Z,5.40
2023-05-18T03:35:02.005Z,5.23
2023-05-18T03:37:30.233Z,5.50
2023-05-18T03:40:12.810Z,4.90
2023-05-18T03:42:42.077Z,5.20
2023-05-18T03:45:10.798Z,5.30
2023-05-18T03:47:39.341Z,4.77
2023-05-18T03:50:08.298Z,4.73
2023-05-18T03:52:36.359Z,4.90
2023-05-18T03:55:04.537Z,5.55
2023-05-18T03:57:33.284Z,5.10
2023-05-18T04:00:01.920Z,4.50
2023-05-18T04:02:31.143Z,4.63
2023-05-18T04:04:58.370Z,4.30
2023-05-18T04:07:27.619Z,4.53
2023-05-18T04:09:56.249Z,4.33
2023-05-18T04:12:23.691Z,5.07
2023-05-18T04:14:50.858Z,5.53
2023-05-18T04:17:22.293Z,5.33
2023-05-18T04:19:50.304Z,5.20
2023-05-18T04:22:17.700Z,4.10
2023-05-18T04:24:48.249Z,4.43
2023-05-18T04:27:15.512Z,4.10
2023-05-18T04:29:44.018Z,4.67
2023-05-18T04:32:11.520Z,4.80
2023-05-18T04:34:39.253Z,5.30
2023-05-18T04:37:06.882Z,5.57
2023-05-18T04:39:39.535Z,4.73
2023-05-18T04:42:10.707Z,5.03
2023-05-18T04:44:39.092Z,4.73
2023-05-18T04:47:08.624Z,5.03
2023-05-18T04:49:36.858Z,4.27
2023-05-18T04:52:06.625Z,4.97
2023-05-18T04:54:33.813Z,4.57
2023-05-18T04:57:02.264Z,4.80
2023-05-18T04:59:29.574Z,4.77
2023-05-18T05:01:56.726Z,4.90
2023-05-18T05:04:25.217Z,4.73
2023-05-18T05:06:52.271Z,4.43
2023-05-18T05:09:19.496Z,4.50
2023-05-18T05:11:46.861Z,4.53
2023-05-18T05:14:14.188Z,5.00
2023-05-18T05:16:41.428Z,4.43
2023-05-18T05:19:08.597Z,4.40
2023-05-18T05:21:36.260Z,4.43
2023-05-18T05:24:06.088Z,4.50
2023-05-18T05:26:33.483Z,4.87
2023-05-18T05:29:00.764Z,4.23
2023-05-18T05:31:27.954Z,4.27
2023-05-18T05:33:55.171Z,4.60
2023-05-18T05:36:22.373Z,4.50
2023-05-18T05:38:49.714Z,4.23
2023-05-18T05:41:16.877Z,4.20
2023-05-18T05:43:44.052Z,4.30
2023-05-18T05:46:11.369Z,5.10
2023-05-18T05:48:38.717Z,4.70
2023-05-18T05:51:05.975Z,3.90
2023-05-18T05:53:33.793Z,4.53
2023-05-18T05:56:00.913Z,4.60
2023-05-18T05:58:28.224Z,4.63
2023-05-18T06:00:59.028Z,4.57
2023-05-18T06:03:26.644Z,4.17
2023-05-18T06:05:56.405Z,4.63
2023-05-18T06:08:27.080Z,4.30
2023-05-18T06:10:56.022Z,4.57
2023-05-18T06:13:24.332Z,4.70
2023-05-18T06:15:54.599Z,4.33
2023-05-18T06:18:22.926Z,4.80
2023-05-18T06:20:51.341Z,4.10
2023-05-18T06:23:22.868Z,3.83
2023-05-18T06:26:16.847Z,4.20
2023-05-18T06:28:50.682Z,4.93
2023-05-18T06:31:50.615Z,4.63
2023-05-18T06:34:22.888Z,4.73
2023-05-18T06:36:54.236Z,4.50
2023-05-18T06:39:21.935Z,4.73
2023-05-18T06:41:51.730Z,4.57
2023-05-18T06:44:25.314Z,4.77
2023-05-18T06:47:13.031Z,4.50
2023-05-18T06:49:40.820Z,4.90
2023-05-18T06:52:10.102Z,5.23
2023-05-18T06:54:38.509Z,5.07
2023-05-18T06:57:06.357Z,4.77
2023-05-18T06:59:35.015Z,4.73
2023-05-18T07:02:02.732Z,4.83
2023-05-18T07:04:32.472Z,4.27
2023-05-18T07:06:59.883Z,4.63
2023-05-18T07:09:27.407Z,4.70
2023-05-18T07:11:54.851Z,3.67
2023-05-18T07:14:22.382Z,5.07
2023-05-18T07:16:49.815Z,4.20
2023-05-18T07:19:17.347Z,4.70
2023-05-18T07:21:44.829Z,4.10
2023-05-18T07:24:12.333Z,5.07
2023-05-18T07:26:39.763Z,4.47
2023-05-18T07:29:07.316Z,4.77
2023-05-18T07:31:38.950Z,4.60
2023-05-18T07:34:06.491Z,4.50
2023-05-18T07:36:33.954Z,4.43
2023-05-18T07:39:01.702Z,4.40
2023-05-18T07:41:29.267Z,4.87
2023-05-18T07:43:57.052Z,4.37
2023-05-18T07:46:24.568Z,4.83
2023-05-18T07:48:52.144Z,4.37
2023-05-18T07:51:21.704Z,4.30
2023-05-18T07:53:49.532Z,4.23
2023-05-18T07:56:17.124Z,5.37
2023-05-18T07:58:44.816Z,4.93
2023-05-18T08:01:12.544Z,4.70
2023-05-18T08:03:40.408Z,4.67
2023-05-18T08:06:08.067Z,4.90
2023-05-18T08:08:38.839Z,4.60
2023-05-18T08:11:06.329Z,4.50
2023-05-18T08:13:34.332Z,4.70
2023-05-18T08:16:10.991Z,4.90
2023-05-18T08:18:39.659Z,4.40
2023-05-18T08:21:10.681Z,4.73
2023-05-18T08:23:38.245Z,4.70
2023-05-18T08:26:05.809Z,4.73
2023-05-18T08:28:33.445Z,5.70
2023-05-18T08:31:00.948Z,4.70
2023-05-18T08:33:28.499Z,4.90
2023-05-18T08:35:56.718Z,5.27
2023-05-18T08:38:24.149Z,4.67
2023-05-18T08:40:57.142Z,5.50
2023-05-18T08:43:30.051Z,5.40
2023-05-18T08:46:06.688Z,5.13
2023-05-18T08:48:34.569Z,4.90
2023-05-18T08:51:03.658Z,5.60
2023-05-18T08:53:34.034Z,5.20
2023-05-18T08:56:01.709Z,5.47
2023-05-18T08:58:36.004Z,5.30
2023-05-18T09:01:04.823Z,5.60
2023-05-18T09:03:32.483Z,4.90
2023-05-18T09:06:01.736Z,5.30
2023-05-18T09:08:29.384Z,4.80
2023-05-18T09:10:58.674Z,5.10
2023-05-18T09:13:27.119Z,5.03
2023-05-18T09:15:54.287Z,4.77
2023-05-18T09:18:23.951Z,4.83
2023-05-18T09:20:52.500Z,5.37
2023-05-18T09:23:19.716Z,4.93
2023-05-18T09:25:49.797Z,4.60
2023-05-18T09:28:35.880Z,4.80
2023-05-18T09:31:05.111Z,4.50
2023-05-18T09:33:39.538Z,4.80
2023-05-18T09:36:07.840Z,4.57
2023-05-18T09:38:39.423Z,4.80
2023-05-18T09:41:17.633Z,4.60
2023-05-18T09:43:47.913Z,6.83
2023-05-18T09:46:15.063Z,4.63
2023-05-18T09:48:45.535Z,5.10
2023-05-18T09:51:18.112Z,4.50
2023-05-18T09:53:53.204Z,4.50
2023-05-18T09:56:21.592Z,4.20
2023-05-18T09:58:48.713Z,4.33
2023-05-18T10:01:15.975Z,4.63
2023-05-18T10:03:45.319Z,4.43
2023-05-18T10:06:15.295Z,5.43
2023-05-18T10:08:42.419Z,5.30
2023-05-18T10:11:09.536Z,5.37
2023-05-18T10:13:36.805Z,4.97
2023-05-18T10:16:07.396Z,5.43
2023-05-18T10:18:38.590Z,5.50
2023-05-18T10:21:09.905Z,5.27
2023-05-18T10:23:37.871Z,5.97
2023-05-18T10:26:07.579Z,5.10
2023-05-18T10:28:55.569Z,4.97
2023-05-18T10:31:24.879Z,5.23
2023-05-18T10:33:53.040Z,5.10
2023-05-18T10:36:21.795Z,5.30
2023-05-18T10:38:49.805Z,5.30
2023-05-18T10:41:21.755Z,4.80
2023-05-18T10:43:49.711Z,4.40
2023-05-18T10:46:17.257Z,5.00
2023-05-18T10:48:51.444Z,4.20
2023-05-18T10:51:20.323Z,4.73
2023-05-18T10:53:48.397Z,4.37
2023-05-18T10:56:18.931Z,4.03
2023-05-18T10:58:47.787Z,4.90
2023-05-18T11:01:15.904Z,4.63
2023-05-18T11:03:43.226Z,4.07
2023-05-18T11:06:12.187Z,4.07
2023-05-18T11:08:44.639Z,4.57
2023-05-18T11:11:11.837Z,4.20
2023-05-18T11:13:50.717Z,4.13
2023-05-18T11:16:19.971Z,4.37
2023-05-18T11:18:52.438Z,3.90
2023-05-18T11:21:52.542Z,4.37
2023-05-18T11:24:32.913Z,4.30
2023-05-18T11:27:16.127Z,4.10
2023-05-18T11:29:57.718Z,4.00
2023-05-18T11:32:33.101Z,4.47
2023-05-18T11:35:00.333Z,4.60
2023-05-18T11:38:06.871Z,4.80
2023-05-18T11:40:48.561Z,4.70
2023-05-18T11:43:23.254Z,4.63
2023-05-18T11:45:59.271Z,4.03
2023-05-18T11:48:31.618Z,4.40
2023-05-18T11:50:58.912Z,4.10
2023-05-18T11:53:27.401Z,4.17
2023-05-18T11:55:55.247Z,4.23
2023-05-18T11:58:25.376Z,4.07
2023-05-18T12:00:52.737Z,3.90
2023-05-18T12:03:24.774Z,3.37
2023-05-18T12:05:52.705Z,3.60
2023-05-18T12:08:20.412Z,3.80
2023-05-18T12:10:48.979Z,4.27
2023-05-18T12:13:17.899Z,3.60
2023-05-18T12:15:45.707Z,3.63
2023-05-18T12:18:12.939Z,3.37
2023-05-18T12:20:41.132Z,3.97
2023-05-18T12:23:08.295Z,3.70
2023-05-18T12:25:36.628Z,3.07
2023-05-18T12:28:04.930Z,3.43
2023-05-18T12:30:35.790Z,3.60
2023-05-18T12:33:03.731Z,3.30
2023-05-18T12:35:31.909Z,3.37
2023-05-18T12:38:02.788Z,3.40
2023-05-18T12:40:44.604Z,3.40
2023-05-18T12:43:13.119Z,3.80
2023-05-18T12:45:41.236Z,3.20
2023-05-18T12:48:11.089Z,3.43
2023-05-18T12:50:47.405Z,3.13
2023-05-18T12:53:15.118Z,3.43
2023-05-18T12:55:42.163Z,3.43
2023-05-18T12:58:19.371Z,3.67
2023-05-18T13:00:48.762Z,3.43
2023-05-18T13:03:18.155Z,3.23
2023-05-18T13:05:46.685Z,3.57
2023-05-18T13:08:23.759Z,3.43
2023-05-18T13:11:01.333Z,3.47
2023-05-18T13:13:33.280Z,3.50
2023-05-18T13:16:00.653Z,3.40
2023-05-18T13:18:28.629Z,3.73
2023-05-18T13:20:58.589Z,3.60
2023-05-18T13:23:28.857Z,3.37
2023-05-18T13:25:58.530Z,3.33
2023-05-18T13:28:27.367Z,3.73
2023-05-18T13:30:54.651Z,3.00
2023-05-18T13:33:21.783Z,3.37
2023-05-18T13:35:49.952Z,3.43
2023-05-18T13:38:17.650Z,3.30
2023-05-18T13:40:46.505Z,3.30
2023-05-18T13:43:14.183Z,3.60
2023-05-18T13:45:42.510Z,3.77
2023-05-18T13:48:10.648Z,3.20
2023-05-18T13:50:38.870Z,3.73
2023-05-18T13:53:06.864Z,3.27
2023-05-18T13:55:34.445Z,3.07
2023-05-18T13:58:02.239Z,2.93
2023-05-18T14:00:29.435Z,3.10
2023-05-18T14:02:57.055Z,2.60
2023-05-18T14:05:24.724Z,3.50
2023-05-18T14:07:54.945Z,2.87
2023-05-18T14:10:22.048Z,2.93
2023-05-18T14:12:49.309Z,3.03
2023-05-18T14:15:16.466Z,2.60
2023-05-18T14:17:44.128Z,2.70
2023-05-18T14:20:12.472Z,2.33
2023-05-18T14:22:39.736Z,2.87
2023-05-18T14:25:07.179Z,2.43
2023-05-18T14:27:34.523Z,2.30
2023-05-18T14:30:02.137Z,2.70
2023-05-18T14:32:29.302Z,3.37
2023-05-18T14:34:58.117Z,2.43
2023-05-18T14:37:25.696Z,3.47
2023-05-18T14:39:52.828Z,2.73
2023-05-18T14:42:19.988Z,2.60
2023-05-18T14:44:47.229Z,2.67
2023-05-18T14:47:14.473Z,2.80
2023-05-18T14:49:41.718Z,3.07
2023-05-18T14:52:09.294Z,2.80
2023-05-18T14:54:36.668Z,2.67
2023-05-18T14:57:04.028Z,2.50
2023-05-18T14:59:31.249Z,3.17
2023-05-18T15:01:58.521Z,3.17
2023-05-18T15:04:25.956Z,3.00
2023-05-18T15:06:53.180Z,3.00
2023-05-18T15:09:20.443Z,2.70
2023-05-18T15:11:47.611Z,2.93
2023-05-18T15:14:14.750Z,2.80
2023-05-18T15:16:42.634Z,2.87
2023-05-18T15:19:10.058Z,2.83
2023-05-18T15:21:37.232Z,3.03
2023-05-18T15:24:04.488Z,3.20
2023-05-18T15:26:32.019Z,3.50
2023-05-18T15:28:59.089Z,2.90
2023-05-18T15:31:26.313Z,3.07
2023-05-18T15:33:53.418Z,3.40
2023-05-18T15:36:21.742Z,3.60
2023-05-18T15:38:48.871Z,2.43
2023-05-18T15:41:15.987Z,2.73
2023-05-18T15:43:43.697Z,2.57
2023-05-18T15:46:11.035Z,2.70
2023-05-18T15:48:38.144Z,2.50
2023-05-18T15:51:05.273Z,2.70
2023-05-18T15:53:32.290Z,2.83
2023-05-18T15:55:59.786Z,2.80
2023-05-18T15:58:26.994Z,2.70
2023-05-18T16:00:54.360Z,2.87
2023-05-18T16:03:21.665Z,2.70
2023-05-18T16:05:48.836Z,2.20
2023-05-18T16:08:16.010Z,3.30
2023-05-18T16:10:43.187Z,2.97
2023-05-18T16:13:10.217Z,2.90
2023-05-18T16:15:38.460Z,3.20
2023-05-18T16:18:05.974Z,7.40
2023-05-18T16:20:33.295Z,7.33
2023-05-18T16:23:00.622Z,4.60
2023-05-18T16:25:28.870Z,3.50
2023-05-18T16:27:55.976Z,4.80
2023-05-18T16:30:23.236Z,3.80
2023-05-18T16:32:50.552Z,3.03
2023-05-18T16:35:17.852Z,3.47
2023-05-18T16:37:44.907Z,3.00
2023-05-18T16:40:12.298Z,3.87
2023-05-18T16:42:39.415Z,3.30
2023-05-18T16:45:06.985Z,3.87
2023-05-18T16:47:34.132Z,3.20
2023-05-18T16:50:01.418Z,3.23
2023-05-18T16:52:28.601Z,7.27
2023-05-18T16:54:55.897Z,3.87
2023-05-18T16:57:25.396Z,2.90
2023-05-18T16:59:54.501Z,3.10
2023-05-18T17:02:21.776Z,3.60
2023-05-18T17:04:52.298Z,2.70
2023-05-18T17:07:19.415Z,3.40
2023-05-18T17:09:46.499Z,3.50
2023-05-18T17:12:13.586Z,3.43
2023-05-18T17:14:40.603Z,4.23
2023-05-18T17:17:08.544Z,4.47
2023-05-18T17:19:36.256Z,3.90
2023-05-18T17:22:03.943Z,4.67
2023-05-18T17:24:31.323Z,3.40
2023-05-18T17:26:59.479Z,4.90
2023-05-18T17:29:27.250Z,3.70
2023-05-18T17:31:54.634Z,3.53
2023-05-18T17:34:22.232Z,3.87
2023-05-18T17:36:49.747Z,3.13
2023-05-18T17:39:16.861Z,3.27
2023-05-18T17:41:44.405Z,5.33
2023-05-18T17:44:14.714Z,3.30
2023-05-18T17:46:42.244Z,3.33
2023-05-18T17:49:09.503Z,3.63
2023-05-18T17:51:36.726Z,4.37
2023-05-18T17:54:04.342Z,3.10
2023-05-18T17:56:31.868Z,3.37
2023-05-18T17:58:59.484Z,4.20
2023-05-18T18:01:27.461Z,4.33
2023-05-18T18:03:55.656Z,3.63
2023-05-18T18:06:23.609Z,3.23
2023-05-18T18:08:52.067Z,2.87
2023-05-18T18:11:19.572Z,3.10
2023-05-18T18:13:46.902Z,3.30
2023-05-18T18:16:14.520Z,2.97
2023-05-18T18:18:41.800Z,3.17
2023-05-18T18:21:08.919Z,5.00
2023-05-18T18:23:37.695Z,3.77
2023-05-18T18:26:05.492Z,2.90
2023-05-18T18:28:33.737Z,3.13
2023-05-18T18:31:02.105Z,2.53
2023-05-18T18:33:29.384Z,2.93
2023-05-18T18:35:57.600Z,2.83
2023-05-18T18:38:27.052Z,2.90
2023-05-18T18:41:00.806Z,2.80
2023-05-18T18:43:28.484Z,3.80
2023-05-18T18:45:57.274Z,3.73
2023-05-18T18:48:25.574Z,4.40
2023-05-18T18:50:53.296Z,3.67
2023-05-18T18:53:20.634Z,3.53
2023-05-18T18:55:48.046Z,7.33
2023-05-18T18:58:15.225Z,5.07
2023-05-18T19:00:42.417Z,4.60
2023-05-18T19:03:14.545Z,6.23
2023-05-18T19:05:41.973Z,7.23
2023-05-18T19:08:09.075Z,4.97
2023-05-18T19:10:36.207Z,3.17
2023-05-18T19:13:05.946Z,6.40
2023-05-18T19:15:34.870Z,3.10
2023-05-18T19:18:03.099Z,2.80
2023-05-18T19:20:30.453Z,2.83
2023-05-18T19:22:57.622Z,4.77
2023-05-18T19:25:25.725Z,3.38
2023-05-18T19:27:53.729Z,2.80
2023-05-18T19:30:21.793Z,4.13
2023-05-18T19:32:50.004Z,4.07
2023-05-18T19:35:19.790Z,5.50
2023-05-18T19:37:47.708Z,3.27
2023-05-18T19:40:14.988Z,3.20
2023-05-18T19:42:42.264Z,3.23
2023-05-18T19:45:09.792Z,2.80
2023-05-18T19:47:37.122Z,2.70
2023-05-18T19:50:04.725Z,3.17
2023-05-18T19:52:33.661Z,3.10
2023-05-18T19:55:01.983Z,3.20
2023-05-18T19:57:29.591Z,3.10
2023-05-18T19:59:57.974Z,2.77
2023-05-18T20:02:25.812Z,2.37
2023-05-18T20:04:53.796Z,3.13
2023-05-18T20:07:22.579Z,3.00
2023-05-18T20:09:53.023Z,2.97
2023-05-18T20:12:20.486Z,2.70
2023-05-18T20:14:48.524Z,2.60
2023-05-18T20:17:16.881Z,3.20
2023-05-18T20:19:50.843Z,3.13
2023-05-18T20:22:18.585Z,3.07
2023-05-18T20:24:46.239Z,3.00
2023-05-18T20:27:16.779Z,2.90
2023-05-18T20:29:44.143Z,2.50
2023-05-18T20:32:11.241Z,3.20
2023-05-18T20:34:38.377Z,2.60
2023-05-18T20:37:09.163Z,2.97
2023-05-18T20:39:39.935Z,2.80
2023-05-18T20:42:07.863Z,2.80
2023-05-18T20:44:35.082Z,3.10
2023-05-18T20:47:02.803Z,3.07
2023-05-18T20:49:30.119Z,3.30
2023-05-18T20:51:57.230Z,2.90
2023-05-18T20:54:24.386Z,3.20
2023-05-18T20:56:51.604Z,3.10
2023-05-18T20:59:19.208Z,3.27
2023-05-18T21:01:46.271Z,3.30
2023-05-18T21:04:13.771Z,3.00
2023-05-18T21:06:44.137Z,2.83
2023-05-18T21:09:11.965Z,2.77
2023-05-18T21:11:38.984Z,2.50
2023-05-18T21:14:06.098Z,2.80
2023-05-18T21:16:33.590Z,3.00
2023-05-18T21:19:01.079Z,2.90
2023-05-18T21:21:28.658Z,3.03
2023-05-18T21:23:56.084Z,2.70
2023-05-18T21:26:23.219Z,3.27
2023-05-18T21:28:50.352Z,3.10
2023-05-18T21:31:17.576Z,3.17
2023-05-18T21:33:48.275Z,2.70
2023-05-18T21:36:33.564Z,2.70
2023-05-18T21:39:05.607Z,2.40
2023-05-18T21:41:34.146Z,3.47
2023-05-18T21:44:01.214Z,2.87
2023-05-18T21:46:28.422Z,3.30
2023-05-18T21:48:55.586Z,2.90
2023-05-18T21:51:23.008Z,2.50
2023-05-18T21:53:50.412Z,3.10
2023-05-18T21:56:17.952Z,2.50
2023-05-18T21:58:45.028Z,2.73
2023-05-18T22:01:12.125Z,2.80
2023-05-18T22:03:39.916Z,2.83
2023-05-18T22:06:07.425Z,3.27
2023-05-18T22:08:34.455Z,2.60
2023-05-18T22:11:01.590Z,2.97
2023-05-18T22:13:28.732Z,2.90
2023-05-18T22:15:56.504Z,3.00
2023-05-18T22:18:26.890Z,3.27
2023-05-18T22:20:55.060Z,3.17
2023-05-18T22:23:26.272Z,2.97
2023-05-18T22:25:53.432Z,2.57
2023-05-18T22:28:21.748Z,2.93
2023-05-18T22:30:52.436Z,3.23
2023-05-18T22:33:21.263Z,3.10
2023-05-18T22:35:48.443Z,3.20
2023-05-18T22:38:16.844Z,2.97
2023-05-18T22:40:45.133Z,2.80
2023-05-18T22:43:12.223Z,3.13
2023-05-18T22:45:39.365Z,3.00
2023-05-18T22:48:06.668Z,3.20
2023-05-18T22:50:34.404Z,2.90
2023-05-18T22:53:02.382Z,3.67
2023-05-18T22:55:29.553Z,2.90
2023-05-18T22:57:56.738Z,3.00
2023-05-18T23:00:23.902Z,3.13
2023-05-18T23:02:53.137Z,3.30
2023-05-18T23:05:20.458Z,2.80
2023-05-18T23:07:47.676Z,3.20
2023-05-18T23:10:14.728Z,4.07
2023-05-18T23:12:41.808Z,3.50
2023-05-18T23:15:10.570Z,2.80
2023-05-18T23:17:42.414Z,3.13
2023-05-18T23:20:11.532Z,3.27
2023-05-18T23:22:38.647Z,2.97
2023-05-18T23:25:08.832Z,3.00
2023-05-18T23:27:36.106Z,3.27
2023-05-18T23:30:18.729Z,3.07
2023-05-18T23:32:46.996Z,3.83
2023-05-18T23:35:15.302Z,3.27
2023-05-18T23:37:42.876Z,2.73
2023-05-18T23:40:12.500Z,3.10
2023-05-18T23:42:40.179Z,2.63
2023-05-18T23:45:08.579Z,3.20
2023-05-18T23:47:36.353Z,2.90
2023-05-18T23:50:03.848Z,2.83
2023-05-18T23:52:33.976Z,2.93
2023-05-18T23:55:02.877Z,3.10
2023-05-18T23:57:31.564Z,2.93
2023-05-18T23:59:59.106Z,3.40
